Time;durP1;ratioP1;P1;durP2;ratioP2;P2;SDS_P1;SDS_P2;PMS_P1;PMS_P2;Temp;Humidity;BMP_temperature;BMP_pressure;BME280_temperature;BME280_humidity;BME280_pressure;Samples;Min_cycle;Max_cycle;Signal;HPM_P1;HPM_P2
2022/11/16 00:01:28;;;;;;;16.08;13.65;;;11.90;99.90;;;;;;5105859;28;20037;-56
2022/11/16 00:03:57;;;;;;;15.80;14.10;;;11.90;99.90;;;;;;5084751;28;20020;-56
2022/11/16 00:06:23;;;;;;;17.50;14.23;;;11.80;99.90;;;;;;5097115;28;20023;-55
2022/11/16 00:11:36;;;;;;;17.20;14.60;;;11.90;99.90;;;;;;5105839;28;20035;-56
2022/11/16 00:14:03;;;;;;;17.80;14.75;;;11.80;99.90;;;;;;5105620;28;20028;-56
2022/11/16 00:16:29;;;;;;;16.55;14.30;;;11.80;99.90;;;;;;5102459;28;20047;-58
2022/11/16 00:18:56;;;;;;;17.83;15.43;;;11.80;99.90;;;;;;5104599;28;20027;-57
2022/11/16 00:21:22;;;;;;;20.55;15.13;;;11.80;99.90;;;;;;5101115;28;20027;-57
2022/11/16 00:23:47;;;;;;;20.55;16.92;;;11.90;99.90;;;;;;5101375;28;20028;-55
2022/11/16 00:26:13;;;;;;;18.80;15.65;;;11.90;99.90;;;;;;5102872;28;20027;-57
2022/11/16 00:28:38;;;;;;;17.90;16.02;;;11.90;99.90;;;;;;5105693;28;20471;-58
2022/11/16 00:31:06;;;;;;;19.23;17.20;;;11.90;99.90;;;;;;5105579;28;20586;-56
2022/11/16 00:33:32;;;;;;;19.60;16.92;;;11.80;99.90;;;;;;5101370;28;20047;-57
2022/11/16 00:36:01;;;;;;;20.45;17.63;;;11.90;99.90;;;;;;5082260;28;20468;-53
2022/11/16 00:38:27;;;;;;;21.80;17.35;;;11.80;99.90;;;;;;5108216;28;20495;-57
2022/11/16 00:40:52;;;;;;;19.98;17.08;;;11.90;99.90;;;;;;5085214;28;20060;-54
2022/11/16 00:43:18;;;;;;;19.63;17.45;;;11.90;99.90;;;;;;5106410;28;20108;-53
2022/11/16 00:45:44;;;;;;;20.27;17.75;;;11.90;99.90;;;;;;5098868;28;20051;-58
2022/11/16 00:48:10;;;;;;;20.35;18.17;;;11.80;99.90;;;;;;5107783;28;20020;-57
2022/11/16 00:50:36;;;;;;;20.42;17.80;;;11.90;99.90;;;;;;5106680;28;20035;-55
2022/11/16 00:53:03;;;;;;;19.23;17.20;;;11.90;99.90;;;;;;5102293;28;20024;-56
2022/11/16 00:55:29;;;;;;;19.75;17.35;;;11.90;99.90;;;;;;5102615;28;20168;-55
2022/11/16 00:57:55;;;;;;;22.13;17.85;;;11.90;99.90;;;;;;5105354;28;20484;-57
2022/11/16 01:00:20;;;;;;;20.50;18.33;;;11.90;99.90;;;;;;5108022;28;20111;-56
2022/11/16 01:02:46;;;;;;;18.83;16.83;;;11.90;99.90;;;;;;5105960;28;20113;-57
2022/11/16 01:05:12;;;;;;;20.75;17.55;;;11.90;99.90;;;;;;5094331;28;20076;-57
2022/11/16 01:07:39;;;;;;;19.80;17.70;;;11.90;99.90;;;;;;5087121;28;20138;-56
2022/11/16 01:10:08;;;;;;;18.38;16.48;;;11.90;99.90;;;;;;5084574;28;20024;-58
2022/11/16 01:12:34;;;;;;;18.90;16.92;;;11.90;99.90;;;;;;5099478;28;20019;-57
2022/11/16 01:14:59;;;;;;;22.15;17.90;;;11.90;99.90;;;;;;5102937;28;20047;-55
2022/11/16 01:17:25;;;;;;;19.80;17.63;;;11.90;99.90;;;;;;5105084;28;20024;-57
2022/11/16 01:19:51;;;;;;;19.08;17.13;;;11.90;99.90;;;;;;5104380;28;20427;-56
2022/11/16 01:22:16;;;;;;;21.10;18.90;;;11.90;99.90;;;;;;5084616;28;20028;-56
2022/11/16 01:24:43;;;;;;;23.30;17.73;;;11.90;99.90;;;;;;5105682;28;20063;-57
2022/11/16 01:27:09;;;;;;;21.77;18.95;;;11.90;99.90;;;;;;5103986;28;21566;-57
2022/11/16 01:29:34;;;;;;;19.48;17.48;;;11.90;99.90;;;;;;5082093;28;20456;-56
2022/11/16 01:32:00;;;;;;;20.38;16.95;;;11.90;99.90;;;;;;5107250;28;20126;-57
2022/11/16 01:34:26;;;;;;;20.17;17.88;;;11.90;99.90;;;;;;5106470;28;20032;-55
2022/11/16 01:36:51;;;;;;;20.60;18.42;;;11.90;99.90;;;;;;5108376;27;20104;-57
2022/11/16 01:39:17;;;;;;;20.23;18.13;;;11.90;99.90;;;;;;5107302;28;20556;-56
2022/11/16 01:41:43;;;;;;;19.40;17.38;;;11.90;99.90;;;;;;5107112;28;20028;-55
2022/11/16 01:44:31;;;;;;;18.50;16.58;;;11.90;99.90;;;;;;5105075;28;20026;-57
2022/11/16 01:46:57;;;;;;;17.42;15.63;;;11.90;99.90;;;;;;5106856;28;20482;-57
2022/11/16 01:49:26;;;;;;;18.50;15.73;;;11.90;99.90;;;;;;5104597;28;20023;-56
2022/11/16 01:51:56;;;;;;;17.73;15.85;;;11.90;99.90;;;;;;5106401;28;20019;-57
2022/11/16 01:54:22;;;;;;;17.35;14.43;;;11.90;99.90;;;;;;5088258;28;20029;-55
2022/11/16 01:56:50;;;;;;;16.17;14.50;;;11.90;99.90;;;;;;5099311;28;20028;-57
2022/11/16 01:59:16;;;;;;;15.88;14.10;;;11.90;99.90;;;;;;5105726;28;20026;-57
2022/11/16 02:01:42;;;;;;;16.90;13.90;;;11.90;99.90;;;;;;5107903;28;20107;-57
2022/11/16 02:04:10;;;;;;;16.13;14.43;;;11.90;99.90;;;;;;5109258;28;20098;-57
2022/11/16 02:07:00;;;;;;;14.90;13.40;;;11.90;99.90;;;;;;5108740;28;20093;-56
2022/11/16 02:09:53;;;;;;;15.73;14.02;;;11.90;99.90;;;;;;5108647;28;20499;-55
2022/11/16 02:12:33;;;;;;;15.85;14.10;;;11.90;99.90;;;;;;5103527;28;20028;-56
2022/11/16 02:15:26;;;;;;;16.17;14.25;;;11.90;99.90;;;;;;5107064;28;20027;-55
2022/11/16 02:18:25;;;;;;;15.20;13.52;;;11.90;99.90;;;;;;5091254;28;20027;-56
2022/11/16 02:20:58;;;;;;;15.60;14.00;;;11.90;99.90;;;;;;5107644;27;20137;-57
2022/11/16 02:23:49;;;;;;;16.40;14.50;;;11.90;99.90;;;;;;5076022;28;20067;-56
2022/11/16 02:26:36;;;;;;;18.13;16.23;;;11.90;99.90;;;;;;5100035;27;20463;-57
2022/11/16 02:29:28;;;;;;;17.42;14.73;;;11.80;99.90;;;;;;5104707;28;20024;-54
2022/11/16 02:32:00;;;;;;;16.23;14.52;;;11.90;99.90;;;;;;5104403;28;20043;-56
2022/11/16 02:34:30;;;;;;;17.70;14.25;;;11.80;99.90;;;;;;5099314;28;20039;-57
2022/11/16 02:36:59;;;;;;;16.83;14.63;;;11.80;99.90;;;;;;5103559;28;20019;-55
2022/11/16 02:39:27;;;;;;;14.73;13.25;;;11.80;99.90;;;;;;5101154;28;20031;-57
2022/11/16 02:41:56;;;;;;;15.88;13.30;;;11.90;99.90;;;;;;5101242;27;20028;-52
2022/11/16 02:44:31;;;;;;;14.63;13.07;;;11.80;99.90;;;;;;5122450;27;20520;-57
2022/11/16 02:47:03;;;;;;;14.65;13.02;;;11.90;99.90;;;;;;5094005;28;20107;-57
2022/11/16 02:49:32;;;;;;;14.32;12.60;;;11.80;99.90;;;;;;5090324;28;20035;-57
2022/11/16 02:51:58;;;;;;;14.95;12.32;;;11.80;99.90;;;;;;5073146;28;20032;-55
2022/11/16 02:54:24;;;;;;;14.90;13.32;;;11.90;99.90;;;;;;5090146;28;20031;-54
2022/11/16 02:56:52;;;;;;;13.88;12.48;;;11.80;99.90;;;;;;5092669;28;20028;-56
2022/11/16 02:59:20;;;;;;;14.25;12.35;;;11.90;99.90;;;;;;5095007;28;20024;-57
2022/11/16 03:02:02;;;;;;;14.43;12.75;;;11.80;99.90;;;;;;5093151;28;20042;-55
2022/11/16 03:04:50;;;;;;;12.75;11.43;;;11.90;99.90;;;;;;5093934;28;20020;-53
2022/11/16 03:07:21;;;;;;;13.63;11.10;;;11.90;99.90;;;;;;5090090;28;20028;-54
2022/11/16 03:09:49;;;;;;;14.23;12.15;;;11.90;99.90;;;;;;5078093;28;20048;-56
2022/11/16 03:12:18;;;;;;;15.48;13.43;;;11.90;99.90;;;;;;5089519;27;20386;-58
2022/11/16 03:14:54;;;;;;;15.88;13.07;;;12.00;99.90;;;;;;5092587;28;20099;-52
2022/11/16 03:17:29;;;;;;;15.70;13.00;;;12.00;99.90;;;;;;5090031;28;20035;-57
2022/11/16 03:20:10;;;;;;;14.02;12.63;;;11.90;99.90;;;;;;5074192;28;20015;-57
2022/11/16 03:22:40;;;;;;;14.18;12.60;;;11.90;99.90;;;;;;5091569;28;20480;-55
2022/11/16 03:25:07;;;;;;;15.40;13.75;;;11.90;99.90;;;;;;5089791;28;20028;-57
2022/11/16 03:27:56;;;;;;;13.20;11.82;;;11.90;99.90;;;;;;5096200;28;20484;-54
2022/11/16 03:30:24;;;;;;;12.55;11.25;;;11.90;99.90;;;;;;5092619;28;20496;-57
2022/11/16 03:33:11;;;;;;;15.15;13.60;;;12.00;99.90;;;;;;5072848;28;20493;-57
2022/11/16 03:35:55;;;;;;;15.43;13.82;;;12.10;99.90;;;;;;5094466;28;20024;-57
2022/11/16 03:38:23;;;;;;;14.60;13.20;;;12.10;99.90;;;;;;5091508;28;20020;-57
2022/11/16 03:40:50;;;;;;;14.18;12.77;;;12.00;99.90;;;;;;5089234;28;20476;-57
2022/11/16 03:43:18;;;;;;;14.02;12.63;;;12.10;99.90;;;;;;5091892;28;20038;-57
2022/11/16 03:45:44;;;;;;;13.70;11.95;;;12.10;99.90;;;;;;5089365;28;20445;-57
2022/11/16 03:48:11;;;;;;;12.50;11.25;;;12.10;99.90;;;;;;5095929;28;20085;-56
2022/11/16 03:50:37;;;;;;;12.52;11.25;;;12.10;99.90;;;;;;5087432;28;20028;-57
2022/11/16 03:53:02;;;;;;;12.30;11.10;;;12.10;99.90;;;;;;5092031;28;20127;-58
2022/11/16 03:55:28;;;;;;;11.30;10.20;;;12.20;99.90;;;;;;5099957;28;20510;-58
2022/11/16 03:57:53;;;;;;;11.27;9.45;;;12.20;99.90;;;;;;5089395;28;20572;-57
2022/11/16 04:00:19;;;;;;;11.23;9.60;;;12.20;99.90;;;;;;5089264;28;20476;-57
2022/11/16 04:02:44;;;;;;;9.90;8.90;;;12.20;99.90;;;;;;5096019;28;20023;-57
2022/11/16 04:24:36;;;;;;;10.95;9.85;;;12.30;99.90;;;;;;5094502;28;20042;-58
2022/11/16 04:29:47;;;;;;;10.90;9.80;;;12.20;99.90;;;;;;5089174;28;20022;-57
2022/11/16 04:37:47;;;;;;;11.27;10.20;;;12.20;99.90;;;;;;5089281;28;20511;-58
2022/11/16 04:40:15;;;;;;;10.38;9.38;;;12.20;99.90;;;;;;5088874;28;20067;-56
2022/11/16 04:42:40;;;;;;;9.95;8.95;;;12.20;99.90;;;;;;5092796;28;20052;-55
2022/11/16 04:47:50;;;;;;;8.13;7.32;;;12.10;99.90;;;;;;5110846;27;20023;-58
2022/11/16 04:50:18;;;;;;;9.32;8.38;;;12.10;99.90;;;;;;5072277;28;20384;-58
2022/11/16 04:52:43;;;;;;;7.32;6.55;;;12.10;99.90;;;;;;5093118;28;20020;-57
2022/11/16 04:55:09;;;;;;;7.20;6.50;;;12.10;99.90;;;;;;5083235;28;20028;-55
2022/11/16 04:57:35;;;;;;;7.00;6.30;;;12.10;99.90;;;;;;5091033;28;20104;-58
2022/11/16 05:00:00;;;;;;;7.55;5.22;;;12.10;99.90;;;;;;5089394;28;20028;-57
2022/11/16 05:02:26;;;;;;;5.78;5.20;;;12.10;99.90;;;;;;5098672;28;20027;-56
2022/11/16 05:04:51;;;;;;;6.18;4.97;;;12.00;99.90;;;;;;5098527;28;20038;-56
2022/11/16 05:07:17;;;;;;;5.13;4.63;;;12.00;99.90;;;;;;5074268;28;20074;-58
2022/11/16 05:09:45;;;;;;;4.68;4.20;;;12.00;99.90;;;;;;5079613;28;20024;-56
2022/11/16 05:12:13;;;;;;;4.45;4.05;;;12.00;99.90;;;;;;5106665;28;20027;-57
2022/11/16 05:14:40;;;;;;;6.03;4.40;;;12.00;99.90;;;;;;5073796;28;20020;-56
2022/11/16 05:17:06;;;;;;;8.35;4.78;;;12.00;99.90;;;;;;5078618;28;20440;-58
2022/11/16 05:22:17;;;;;;;4.18;3.63;;;11.90;99.90;;;;;;5095902;28;20039;-57
2022/11/16 05:24:42;;;;;;;5.45;3.45;;;11.90;99.90;;;;;;5095356;28;20028;-55
2022/11/16 05:27:11;;;;;;;3.50;2.80;;;11.90;99.90;;;;;;5094707;28;20028;-58
2022/11/16 05:29:38;;;;;;;3.72;2.65;;;11.90;99.90;;;;;;5094984;27;20024;-57
2022/11/16 05:32:04;;;;;;;3.22;2.38;;;11.80;99.90;;;;;;5095272;28;20052;-57
2022/11/16 05:34:30;;;;;;;4.07;2.33;;;11.90;99.90;;;;;;5097528;28;20036;-55
2022/11/16 05:36:57;;;;;;;4.47;1.90;;;11.80;99.90;;;;;;5080259;28;20027;-57
2022/11/16 05:39:23;;;;;;;5.30;2.00;;;11.80;99.90;;;;;;5094753;28;20020;-54
2022/11/16 05:41:49;;;;;;;4.38;2.38;;;11.80;99.90;;;;;;5073386;28;20032;-56
2022/11/16 05:44:15;;;;;;;4.57;2.03;;;11.80;99.90;;;;;;5091923;28;20024;-57
2022/11/16 05:46:41;;;;;;;4.25;1.77;;;11.70;99.90;;;;;;5092223;28;20016;-57
2022/11/16 05:49:07;;;;;;;5.07;1.98;;;11.70;99.90;;;;;;5091619;28;20035;-58
2022/11/16 05:51:34;;;;;;;2.78;2.08;;;11.70;99.90;;;;;;5090963;28;20039;-57
2022/11/16 05:54:01;;;;;;;5.25;2.28;;;11.60;99.90;;;;;;5095885;28;20015;-56
2022/11/16 05:56:26;;;;;;;2.83;1.50;;;11.60;99.90;;;;;;5094104;28;20040;-57
2022/11/16 05:58:53;;;;;;;4.10;1.45;;;11.60;99.90;;;;;;5099653;28;20027;-57
2022/11/16 06:01:19;;;;;;;4.68;1.45;;;11.50;99.90;;;;;;5119550;27;20502;-55
2022/11/16 06:03:44;;;;;;;2.95;1.40;;;11.60;99.90;;;;;;5085480;28;20024;-57
2022/11/16 06:06:10;;;;;;;3.92;1.10;;;11.50;99.90;;;;;;5106943;28;20058;-55
2022/11/16 06:08:35;;;;;;;2.95;1.30;;;11.60;99.90;;;;;;5097905;28;20027;-56
2022/11/16 06:11:03;;;;;;;3.45;1.30;;;11.60;99.90;;;;;;5078055;28;20381;-56
2022/11/16 06:13:29;;;;;;;4.20;1.20;;;11.50;99.90;;;;;;5083720;28;20028;-57
2022/11/16 06:15:54;;;;;;;5.25;1.52;;;11.50;99.90;;;;;;5094714;28;20028;-57
2022/11/16 06:18:20;;;;;;;5.55;1.20;;;11.40;99.90;;;;;;5094343;28;20452;-59
2022/11/16 06:20:47;;;;;;;5.25;1.40;;;11.40;99.90;;;;;;5094589;28;20392;-57
2022/11/16 06:23:12;;;;;;;3.53;1.30;;;11.30;99.90;;;;;;5094483;28;20472;-57
2022/11/16 06:25:39;;;;;;;4.47;1.30;;;11.30;99.90;;;;;;5105441;27;20141;-57
2022/11/16 06:28:05;;;;;;;3.40;1.33;;;11.20;99.90;;;;;;5110474;28;20027;-57
2022/11/16 06:30:31;;;;;;;4.43;1.48;;;11.20;99.90;;;;;;5102219;27;20492;-57
2022/11/16 06:32:56;;;;;;;4.20;1.10;;;11.10;99.90;;;;;;5094417;28;20034;-55
2022/11/16 06:35:22;;;;;;;5.68;1.48;;;11.00;99.90;;;;;;5087611;28;20115;-54
2022/11/16 06:37:47;;;;;;;5.35;1.30;;;11.00;99.90;;;;;;5122195;27;20020;-56
2022/11/16 06:40:13;;;;;;;3.58;1.17;;;11.00;99.90;;;;;;5082436;28;20107;-56
2022/11/16 06:42:39;;;;;;;5.65;1.35;;;10.90;99.90;;;;;;5114497;28;20051;-55
2022/11/16 06:45:05;;;;;;;4.55;1.23;;;10.90;99.90;;;;;;5076042;28;20024;-57
2022/11/16 06:47:30;;;;;;;3.88;1.30;;;10.80;99.90;;;;;;5093954;28;20024;-55
2022/11/16 06:49:56;;;;;;;6.53;1.48;;;10.80;99.90;;;;;;5107035;28;20016;-57
2022/11/16 06:52:21;;;;;;;4.22;1.30;;;10.70;99.90;;;;;;5096154;28;20054;-56
2022/11/16 06:54:47;;;;;;;2.25;1.00;;;10.70;99.90;;;;;;5098861;28;20762;-55
2022/11/16 06:57:12;;;;;;;4.00;1.42;;;10.60;99.90;;;;;;5102555;27;20027;-57
2022/11/16 06:59:38;;;;;;;3.08;1.40;;;10.60;99.90;;;;;;5098609;28;20028;-55
2022/11/16 07:02:03;;;;;;;6.22;1.40;;;10.50;99.90;;;;;;5098747;28;20066;-58
2022/11/16 07:04:31;;;;;;;4.07;1.52;;;10.40;99.90;;;;;;5081814;28;20524;-55
2022/11/16 07:06:56;;;;;;;4.93;1.30;;;10.40;99.90;;;;;;5102671;28;20389;-57
2022/11/16 07:09:22;;;;;;;3.80;1.60;;;10.30;99.90;;;;;;5095948;28;20027;-56
2022/11/16 07:11:47;;;;;;;6.07;1.75;;;10.20;99.90;;;;;;5096334;28;20028;-56
2022/11/16 07:14:13;;;;;;;5.15;1.50;;;10.10;99.90;;;;;;5080330;28;20421;-58
2022/11/16 07:16:38;;;;;;;3.15;1.70;;;10.00;99.90;;;;;;5093661;28;20049;-55
2022/11/16 07:19:04;;;;;;;6.13;2.00;;;9.90;99.90;;;;;;5093360;28;20024;-57
2022/11/16 07:21:30;;;;;;;6.25;2.40;;;9.80;99.90;;;;;;5093389;28;20031;-55
2022/11/16 07:23:56;;;;;;;3.42;1.65;;;9.70;99.90;;;;;;5076086;28;20032;-57
2022/11/16 07:26:22;;;;;;;5.25;2.08;;;9.70;99.90;;;;;;5075511;28;20020;-56
2022/11/16 07:28:48;;;;;;;6.60;2.47;;;9.70;99.90;;;;;;5094276;28;20023;-57
2022/11/16 07:31:14;;;;;;;4.55;2.38;;;9.80;99.90;;;;;;5093169;28;20048;-56
2022/11/16 07:33:40;;;;;;;5.40;2.22;;;9.70;99.90;;;;;;5098590;28;20049;-56
2022/11/16 07:36:08;;;;;;;6.43;2.75;;;9.70;99.90;;;;;;5101909;28;20028;-56
2022/11/16 07:38:34;;;;;;;6.20;2.85;;;9.80;99.90;;;;;;5092867;28;20554;-57
2022/11/16 07:41:05;;;;;;;5.75;3.15;;;9.80;99.90;;;;;;5093019;28;20028;-54
2022/11/16 07:43:33;;;;;;;6.60;3.20;;;9.80;99.90;;;;;;5106454;28;20036;-56
2022/11/16 07:46:08;;;;;;;6.13;3.20;;;9.80;99.90;;;;;;5092921;28;20016;-58
2022/11/16 07:48:34;;;;;;;9.88;4.53;;;9.80;99.90;;;;;;5092657;28;20082;-54
2022/11/16 07:51:08;;;;;;;8.40;3.67;;;9.80;99.90;;;;;;5092981;28;20024;-57
2022/11/16 07:53:35;;;;;;;10.88;3.90;;;9.80;99.90;;;;;;5092555;28;20370;-56
2022/11/16 07:56:01;;;;;;;7.68;3.30;;;9.80;99.90;;;;;;5074995;28;20046;-57
2022/11/16 07:58:28;;;;;;;7.38;3.10;;;9.80;99.90;;;;;;5092749;28;20024;-56
2022/11/16 08:00:54;;;;;;;6.28;3.25;;;9.80;99.90;;;;;;5092665;28;20042;-56
2022/11/16 08:03:19;;;;;;;7.20;3.70;;;9.80;99.90;;;;;;5094795;28;20091;-55
2022/11/16 08:05:45;;;;;;;9.40;3.60;;;9.80;99.90;;;;;;5092666;28;20085;-57
2022/11/16 08:08:11;;;;;;;9.68;4.05;;;9.90;99.90;;;;;;5074535;28;20026;-57
2022/11/16 08:10:37;;;;;;;7.05;3.70;;;9.90;99.90;;;;;;5074804;28;20047;-56
2022/11/16 08:13:03;;;;;;;7.15;3.75;;;9.90;99.90;;;;;;5098636;28;20055;-57
2022/11/16 08:15:29;;;;;;;8.57;4.03;;;10.00;99.90;;;;;;5110692;28;20027;-56
2022/11/16 08:17:58;;;;;;;8.15;4.20;;;10.00;99.90;;;;;;5092416;28;20020;-55
2022/11/16 08:20:23;;;;;;;7.35;3.38;;;10.00;99.90;;;;;;5091965;28;20473;-56
2022/11/16 08:22:49;;;;;;;6.78;3.95;;;10.00;99.90;;;;;;5074540;28;20035;-57
2022/11/16 08:25:15;;;;;;;11.02;4.05;;;10.00;99.90;;;;;;5092668;28;20043;-54
2022/11/16 08:27:40;;;;;;;10.75;5.07;;;10.10;99.90;;;;;;5092734;28;20091;-55
2022/11/16 08:30:08;;;;;;;9.25;4.13;;;10.10;99.90;;;;;;5105366;28;20016;-55
2022/11/16 08:32:35;;;;;;;8.68;4.30;;;10.10;99.90;;;;;;5103638;28;20032;-55
2022/11/16 08:35:00;;;;;;;9.18;4.55;;;10.20;99.90;;;;;;5112687;28;20027;-56
2022/11/16 08:37:27;;;;;;;10.38;5.30;;;10.20;99.90;;;;;;5105699;28;20020;-57
2022/11/16 08:39:53;;;;;;;9.80;4.30;;;10.30;99.90;;;;;;5109837;28;21151;-55
2022/11/16 08:42:19;;;;;;;9.50;4.50;;;10.30;99.90;;;;;;5088038;28;20516;-56
2022/11/16 08:44:44;;;;;;;7.35;4.18;;;10.30;99.90;;;;;;5101052;28;20104;-57
2022/11/16 08:47:10;;;;;;;9.68;4.38;;;10.40;99.90;;;;;;5096521;28;20070;-56
2022/11/16 08:49:35;;;;;;;8.57;3.97;;;10.50;99.90;;;;;;5095980;28;20493;-57
2022/11/16 08:52:01;;;;;;;8.88;4.13;;;10.50;99.90;;;;;;5096296;28;20103;-58
2022/11/16 08:54:29;;;;;;;10.45;4.65;;;10.60;99.90;;;;;;5096272;28;20491;-58
2022/11/16 08:56:55;;;;;;;12.20;3.20;;;10.60;99.90;;;;;;5109462;28;20055;-57
2022/11/16 08:59:20;;;;;;;11.77;3.78;;;10.60;99.90;;;;;;5096352;28;20052;-58
2022/11/16 09:01:46;;;;;;;7.20;3.38;;;10.70;99.90;;;;;;5115209;28;20084;-53
2022/11/16 09:04:11;;;;;;;10.93;3.47;;;10.70;99.90;;;;;;5098328;28;20028;-55
2022/11/16 09:06:37;;;;;;;13.80;3.45;;;10.80;99.90;;;;;;5102212;28;20030;-56
2022/11/16 09:09:03;;;;;;;8.77;3.60;;;10.80;99.90;;;;;;5103242;28;20039;-57
2022/11/16 09:11:28;;;;;;;10.63;2.83;;;10.80;99.90;;;;;;5109076;28;20028;-57
2022/11/16 09:13:55;;;;;;;9.43;3.50;;;10.90;99.90;;;;;;5109240;28;20030;-57
2022/11/16 09:16:22;;;;;;;7.30;2.83;;;10.90;99.90;;;;;;5095839;28;20020;-58
2022/11/16 09:18:49;;;;;;;6.47;2.42;;;10.90;99.90;;;;;;5077634;28;20024;-58
2022/11/16 09:21:23;;;;;;;8.77;2.45;;;11.00;99.90;;;;;;5095797;28;20023;-56
2022/11/16 09:23:50;;;;;;;7.13;2.15;;;11.10;99.90;;;;;;5095665;28;20036;-58
2022/11/16 09:26:19;;;;;;;7.03;2.25;;;11.10;99.90;;;;;;5095661;28;20020;-56
2022/11/16 09:28:44;;;;;;;11.35;2.22;;;11.20;99.90;;;;;;5095505;28;20023;-58
2022/11/16 09:31:10;;;;;;;9.77;2.30;;;11.20;99.90;;;;;;5095410;28;20048;-58
2022/11/16 09:33:36;;;;;;;10.85;2.63;;;11.30;99.90;;;;;;5093196;28;20150;-57
2022/11/16 09:36:05;;;;;;;12.52;2.20;;;11.30;99.90;;;;;;5104805;28;20047;-58
2022/11/16 09:38:38;;;;;;;12.85;3.28;;;11.40;99.90;;;;;;5095214;28;20032;-58
2022/11/16 09:41:22;;;;;;;10.80;1.90;;;11.40;99.90;;;;;;5093703;28;20020;-56
2022/11/16 09:44:01;;;;;;;11.93;3.53;;;11.50;99.90;;;;;;5105519;28;20365;-57
2022/11/16 09:46:45;;;;;;;12.57;2.17;;;11.60;99.90;;;;;;5111123;28;20603;-57
2022/11/16 09:49:19;;;;;;;9.15;1.92;;;11.70;99.90;;;;;;5110399;28;20023;-56
2022/11/16 09:51:52;;;;;;;9.82;1.80;;;11.80;99.90;;;;;;5089861;28;20036;-58
2022/11/16 09:54:26;;;;;;;7.88;1.63;;;12.10;99.90;;;;;;5110861;28;20103;-58
2022/11/16 09:56:56;;;;;;;8.05;1.55;;;12.30;99.90;;;;;;5081459;28;20027;-55
2022/11/16 09:59:21;;;;;;;;;;;12.40;99.90;;;;;;5110813;28;20076;-58
2022/11/16 10:01:57;;;;;;;7.63;1.90;;;12.50;99.90;;;;;;5100975;28;19912;-57
2022/11/16 10:04:37;;;;;;;8.65;1.40;;;12.90;99.90;;;;;;5105165;28;20031;-57
2022/11/16 10:07:05;;;;;;;;;;;13.30;99.90;;;;;;5101377;28;20380;-58
2022/11/16 10:09:31;;;;;;;6.93;1.42;;;13.50;99.90;;;;;;5109934;28;19904;-58
2022/11/16 10:12:26;;;;;;;7.60;1.30;;;13.70;99.90;;;;;;5093280;28;20519;-58
2022/11/16 10:15:07;;;;;;;4.32;1.77;;;13.70;99.90;;;;;;5098558;28;20036;-58
2022/11/16 10:18:05;;;;;;;9.93;1.75;;;13.60;99.90;;;;;;5104200;28;20054;-58
2022/11/16 10:20:34;;;;;;;5.18;1.15;;;13.80;99.90;;;;;;5097439;28;20032;-58
2022/11/16 10:23:35;;;;;;;7.28;1.40;;;14.00;99.90;;;;;;5099138;28;20022;-58
2022/11/16 10:26:20;;;;;;;8.00;1.95;;;14.20;98.80;;;;;;5097554;28;20089;-58
2022/11/16 10:28:59;;;;;;;6.05;1.27;;;14.20;97.90;;;;;;5101305;28;20032;-57
2022/11/16 10:31:50;;;;;;;5.95;1.70;;;14.20;98.10;;;;;;5102295;28;20055;-58
2022/11/16 10:34:21;;;;;;;9.88;1.52;;;14.60;98.10;;;;;;5109607;28;20023;-58
2022/11/16 10:36:47;;;;;;;4.82;1.00;;;14.70;97.50;;;;;;5111548;28;20038;-58
2022/11/16 10:39:18;;;;;;;10.10;1.58;;;15.00;96.30;;;;;;5108748;28;20024;-58
2022/11/16 10:41:49;;;;;;;7.47;2.33;;;15.30;95.70;;;;;;5102779;28;20016;-58
2022/11/16 10:44:41;;;;;;;4.20;1.10;;;15.60;95.60;;;;;;5105195;28;20051;-58
2022/11/16 10:47:24;;;;;;;5.45;1.40;;;16.00;94.20;;;;;;5105308;28;20466;-63
2022/11/16 10:49:56;;;;;;;6.15;1.58;;;16.30;92.80;;;;;;5102812;28;20034;-63
2022/11/16 10:52:22;;;;;;;8.70;2.05;;;16.50;92.50;;;;;;5113797;28;20115;-63
2022/11/16 10:54:48;;;;;;;5.85;1.85;;;16.20;91.40;;;;;;5086878;28;20103;-63
2022/11/16 10:57:14;;;;;;;2.92;0.90;;;16.10;92.10;;;;;;5100462;28;20019;-63
2022/11/16 10:59:41;;;;;;;6.00;1.30;;;16.30;92.10;;;;;;5116577;27;20128;-63
2022/11/16 11:02:36;;;;;;;7.18;1.27;;;17.10;91.90;;;;;;5089153;28;20028;-63
2022/11/16 11:05:19;;;;;;;5.68;1.52;;;17.60;89.70;;;;;;5074499;27;20231;-63
2022/11/16 11:08:06;;;;;;;6.70;1.20;;;18.40;86.30;;;;;;5107267;28;20021;-63
2022/11/16 11:10:38;;;;;;;5.97;1.48;;;18.20;81.50;;;;;;5108077;28;20116;-63
2022/11/16 11:13:09;;;;;;;6.78;1.70;;;18.30;81.00;;;;;;5096894;27;20038;-63
2022/11/16 11:15:35;;;;;;;9.23;2.35;;;18.90;78.60;;;;;;5099425;28;20031;-63
2022/11/16 11:18:18;;;;;;;6.55;1.55;;;19.10;75.80;;;;;;5110810;28;20051;-63
2022/11/16 11:20:47;;;;;;;6.22;1.80;;;19.10;76.50;;;;;;5108916;28;20027;-63
2022/11/16 11:23:17;;;;;;;6.72;1.70;;;19.30;75.60;;;;;;5111753;28;20032;-63
2022/11/16 11:25:57;;;;;;;8.43;1.92;;;19.50;73.90;;;;;;5112675;28;20059;-63
2022/11/16 11:28:25;;;;;;;6.95;2.10;;;19.70;72.00;;;;;;5111359;28;20024;-63
2022/11/16 11:30:57;;;;;;;4.47;1.75;;;19.70;71.50;;;;;;5106445;28;21267;-63
2022/11/16 11:33:25;;;;;;;7.22;2.20;;;19.80;70.40;;;;;;5101213;28;20022;-63
2022/11/16 11:35:58;;;;;;;9.18;3.30;;;20.00;70.40;;;;;;5093728;28;20050;-63
2022/11/16 11:38:24;;;;;;;6.97;2.50;;;19.90;68.50;;;;;;5108498;28;20028;-63
2022/11/16 11:41:03;;;;;;;7.15;2.35;;;20.10;69.70;;;;;;5108101;28;20064;-63
2022/11/16 11:43:29;;;;;;;7.65;2.83;;;20.10;66.80;;;;;;5091196;28;20483;-63
2022/11/16 11:46:23;;;;;;;9.27;2.67;;;18.50;70.20;;;;;;5092633;28;20063;-63
2022/11/16 11:48:56;;;;;;;6.93;2.30;;;17.00;75.50;;;;;;5101882;28;20031;-63
2022/11/16 11:51:39;;;;;;;11.48;2.22;;;15.90;80.50;;;;;;5096529;28;20020;-63
2022/11/16 11:54:06;;;;;;;10.02;2.63;;;15.30;85.50;;;;;;5093392;28;20027;-63
2022/11/16 11:56:33;;;;;;;11.52;3.13;;;15.00;87.20;;;;;;5109933;28;20132;-63
2022/11/16 11:58:59;;;;;;;8.45;2.60;;;15.00;88.60;;;;;;5107828;28;20111;-63
2022/11/16 12:01:40;;;;;;;9.75;2.33;;;15.60;87.40;;;;;;5107632;28;20038;-63
2022/11/16 12:04:24;;;;;;;8.55;1.80;;;15.50;86.70;;;;;;5084742;28;20009;-63
2022/11/16 12:07:15;;;;;;;7.35;1.77;;;15.00;88.70;;;;;;5107682;28;20027;-63
2022/11/16 12:10:11;;;;;;;6.72;2.22;;;14.50;90.50;;;;;;5085787;28;20019;-63
2022/11/16 12:12:49;;;;;;;10.95;2.22;;;14.20;91.20;;;;;;5108956;28;20019;-63
2022/11/16 12:15:33;;;;;;;7.10;2.05;;;14.00;91.90;;;;;;5105241;28;20081;-63
2022/11/16 12:18:28;;;;;;;8.20;1.80;;;13.90;92.50;;;;;;5111010;28;20095;-63
2022/11/16 12:21:10;;;;;;;6.72;1.48;;;13.80;93.10;;;;;;5110144;28;20036;-63
2022/11/16 12:24:12;;;;;;;5.80;1.80;;;14.00;93.90;;;;;;5105750;28;20148;-62
2022/11/16 12:26:51;;;;;;;7.43;1.88;;;14.20;92.60;;;;;;5107248;28;20024;-63
2022/11/16 12:29:39;;;;;;;5.82;1.50;;;14.10;92.50;;;;;;5090903;28;20020;-62
2022/11/16 12:32:20;;;;;;;7.10;1.60;;;14.00;92.50;;;;;;5070252;28;20060;-63
2022/11/16 12:35:11;;;;;;;5.53;1.23;;;13.80;92.50;;;;;;5065246;28;20044;-62
2022/11/16 12:37:39;;;;;;;6.53;1.42;;;13.90;93.40;;;;;;5068411;28;20017;-63
2022/11/16 12:40:42;;;;;;;3.35;1.20;;;14.60;92.80;;;;;;5064795;28;20032;-62
2022/11/16 12:43:16;;;;;;;5.63;1.10;;;15.20;90.90;;;;;;5050382;28;20025;-61
2022/11/16 12:46:01;;;;;;;3.80;1.25;;;15.20;91.00;;;;;;5068261;28;20028;-62
2022/11/16 12:48:45;;;;;;;2.70;0.90;;;15.80;91.00;;;;;;5054749;28;20025;-62
2022/11/16 12:51:22;;;;;;;4.15;0.95;;;16.90;85.90;;;;;;5056514;28;20029;-62
2022/11/16 12:53:59;;;;;;;5.18;1.35;;;16.30;85.10;;;;;;5064284;28;20042;-62
2022/11/16 12:56:46;;;;;;;4.43;0.88;;;15.60;86.00;;;;;;5056137;28;20033;-62
2022/11/16 12:59:54;;;;;;;5.97;1.60;;;15.20;88.60;;;;;;5049566;28;20040;-62
2022/11/16 13:02:53;;;;;;;5.43;1.20;;;15.40;88.70;;;;;;5050349;28;20033;-62
2022/11/16 13:05:39;;;;;;;8.63;1.48;;;15.20;88.70;;;;;;5055405;28;20017;-62
2022/11/16 13:08:11;;;;;;;6.82;1.55;;;15.10;88.50;;;;;;5057292;28;20013;-62
2022/11/16 13:10:41;;;;;;;5.38;1.48;;;15.60;88.40;;;;;;5055325;28;20028;-62
2022/11/16 13:13:16;;;;;;;4.07;0.90;;;16.70;85.10;;;;;;5049583;28;20088;-62
2022/11/16 13:15:45;;;;;;;4.50;1.02;;;17.80;82.40;;;;;;5049438;28;20064;-62
2022/11/16 13:18:14;;;;;;;4.68;0.93;;;18.80;77.00;;;;;;5051362;28;20381;-63
2022/11/16 13:20:40;;;;;;;;;;;18.80;73.30;;;;;;5060756;28;20074;-63
2022/11/16 13:23:15;;;;;;;4.95;1.15;;;18.30;73.20;;;;;;5057063;28;20331;-63
2022/11/16 13:25:54;;;;;;;4.20;0.80;;;17.60;74.70;;;;;;5069002;28;20020;-62
2022/11/16 13:28:41;;;;;;;4.35;0.98;;;16.60;77.00;;;;;;5072759;28;20016;-62
2022/11/16 13:31:25;;;;;;;5.18;1.27;;;15.70;80.50;;;;;;5076028;28;20540;-62
2022/11/16 13:34:06;;;;;;;7.53;1.50;;;15.10;83.20;;;;;;5104579;27;20036;-62
2022/11/16 13:36:35;;;;;;;5.13;1.02;;;14.70;86.30;;;;;;5102134;28;20499;-62